sensor_id;sensor_type;location;lat;lon;timestamp;P1;durP1;ratioP1;P2;durP2;ratioP2
24357;SDS011;13668;52.154;5.580;2022-11-09T00:02:08;5.20;;;2.63;;
24357;SDS011;13668;52.154;5.580;2022-11-09T00:04:34;6.03;;;2.58;;
24357;SDS011;13668;52.154;5.580;2022-11-09T00:07:00;5.13;;;2.40;;
24357;SDS011;13668;52.154;5.580;2022-11-09T00:09:26;4.88;;;2.97;;
24357;SDS011;13668;52.154;5.580;2022-11-09T00:11:52;5.13;;;2.17;;
24357;SDS011;13668;52.154;5.580;2022-11-09T00:14:18;7.72;;;2.72;;
24357;SDS011;13668;52.154;5.580;2022-11-09T00:16:44;4.63;;;2.53;;
24357;SDS011;13668;52.154;5.580;2022-11-09T00:19:10;9.38;;;2.58;;
24357;SDS011;13668;52.154;5.580;2022-11-09T00:21:40;4.82;;;2.30;;
24357;SDS011;13668;52.154;5.580;2022-11-09T00:24:06;4.65;;;2.35;;
24357;SDS011;13668;52.154;5.580;2022-11-09T00:26:32;3.85;;;2.88;;
24357;SDS011;13668;52.154;5.580;2022-11-09T00:28:58;8.00;;;2.92;;
24357;SDS011;13668;52.154;5.580;2022-11-09T00:31:24;6.30;;;2.63;;
24357;SDS011;13668;52.154;5.580;2022-11-09T00:33:51;7.18;;;2.55;;
24357;SDS011;13668;52.154;5.580;2022-11-09T00:36:17;4.60;;;2.70;;
24357;SDS011;13668;52.154;5.580;2022-11-09T00:38:46;6.95;;;2.80;;
24357;SDS011;13668;52.154;5.580;2022-11-09T00:41:12;4.10;;;2.38;;
24357;SDS011;13668;52.154;5.580;2022-11-09T00:43:39;5.10;;;2.70;;
24357;SDS011;13668;52.154;5.580;2022-11-09T00:46:05;4.78;;;2.40;;
24357;SDS011;13668;52.154;5.580;2022-11-09T00:48:32;4.53;;;2.22;;
24357;SDS011;13668;52.154;5.580;2022-11-09T00:50:58;4.90;;;2.25;;
24357;SDS011;13668;52.154;5.580;2022-11-09T00:53:24;11.23;;;2.53;;
24357;SDS011;13668;52.154;5.580;2022-11-09T00:58:19;5.57;;;2.13;;
24357;SDS011;13668;52.154;5.580;2022-11-09T01:00:45;5.20;;;1.92;;
24357;SDS011;13668;52.154;5.580;2022-11-09T01:03:11;6.72;;;2.55;;
24357;SDS011;13668;52.154;5.580;2022-11-09T01:05:37;8.10;;;2.30;;
24357;SDS011;13668;52.154;5.580;2022-11-09T01:08:04;7.05;;;2.35;;
24357;SDS011;13668;52.154;5.580;2022-11-09T01:10:33;6.30;;;2.35;;
24357;SDS011;13668;52.154;5.580;2022-11-09T01:12:59;8.70;;;2.22;;
24357;SDS011;13668;52.154;5.580;2022-11-09T01:15:25;5.53;;;2.22;;
24357;SDS011;13668;52.154;5.580;2022-11-09T01:17:51;7.28;;;2.30;;
24357;SDS011;13668;52.154;5.580;2022-11-09T01:20:17;6.65;;;2.75;;
24357;SDS011;13668;52.154;5.580;2022-11-09T01:22:43;5.47;;;2.13;;
24357;SDS011;13668;52.154;5.580;2022-11-09T01:25:09;7.88;;;2.45;;
24357;SDS011;13668;52.154;5.580;2022-11-09T01:27:35;6.05;;;1.88;;
24357;SDS011;13668;52.154;5.580;2022-11-09T01:30:01;7.00;;;1.98;;
24357;SDS011;13668;52.154;5.580;2022-11-09T01:32:30;6.88;;;2.20;;
24357;SDS011;13668;52.154;5.580;2022-11-09T01:34:56;8.13;;;2.17;;
24357;SDS011;13668;52.154;5.580;2022-11-09T01:37:22;4.60;;;1.88;;
24357;SDS011;13668;52.154;5.580;2022-11-09T01:39:48;7.65;;;2.20;;
24357;SDS011;13668;52.154;5.580;2022-11-09T01:42:14;8.35;;;2.42;;
24357;SDS011;13668;52.154;5.580;2022-11-09T01:44:46;7.65;;;2.28;;
24357;SDS011;13668;52.154;5.580;2022-11-09T01:47:13;8.52;;;2.20;;
24357;SDS011;13668;52.154;5.580;2022-11-09T01:49:46;6.43;;;1.70;;
24357;SDS011;13668;52.154;5.580;2022-11-09T01:52:18;10.63;;;2.10;;
24357;SDS011;13668;52.154;5.580;2022-11-09T01:54:46;8.30;;;2.42;;
24357;SDS011;13668;52.154;5.580;2022-11-09T01:57:16;4.25;;;1.98;;
24357;SDS011;13668;52.154;5.580;2022-11-09T01:59:44;4.07;;;2.20;;
24357;SDS011;13668;52.154;5.580;2022-11-09T02:02:12;7.13;;;2.30;;
24357;SDS011;13668;52.154;5.580;2022-11-09T02:04:40;4.07;;;1.90;;
24357;SDS011;13668;52.154;5.580;2022-11-09T02:07:06;7.90;;;1.90;;
24357;SDS011;13668;52.154;5.580;2022-11-09T02:09:40;6.10;;;2.20;;
24357;SDS011;13668;52.154;5.580;2022-11-09T02:12:08;6.40;;;2.25;;
24357;SDS011;13668;52.154;5.580;2022-11-09T02:14:34;4.72;;;2.20;;
24357;SDS011;13668;52.154;5.580;2022-11-09T02:17:01;7.60;;;2.45;;
24357;SDS011;13668;52.154;5.580;2022-11-09T02:19:27;9.05;;;3.42;;
24357;SDS011;13668;52.154;5.580;2022-11-09T02:21:53;6.05;;;2.20;;
24357;SDS011;13668;52.154;5.580;2022-11-09T02:24:19;8.65;;;3.33;;
24357;SDS011;13668;52.154;5.580;2022-11-09T02:26:49;10.18;;;2.55;;
24357;SDS011;13668;52.154;5.580;2022-11-09T02:29:17;6.15;;;2.47;;
24357;SDS011;13668;52.154;5.580;2022-11-09T02:31:45;7.22;;;2.35;;
24357;SDS011;13668;52.154;5.580;2022-11-09T02:34:14;8.15;;;2.60;;
24357;SDS011;13668;52.154;5.580;2022-11-09T02:36:41;7.63;;;2.72;;
24357;SDS011;13668;52.154;5.580;2022-11-09T02:39:07;6.43;;;2.00;;
24357;SDS011;13668;52.154;5.580;2022-11-09T02:41:35;5.47;;;2.38;;
24357;SDS011;13668;52.154;5.580;2022-11-09T02:44:03;8.13;;;2.97;;
24357;SDS011;13668;52.154;5.580;2022-11-09T02:46:30;8.52;;;2.50;;
24357;SDS011;13668;52.154;5.580;2022-11-09T02:48:57;8.68;;;2.30;;
24357;SDS011;13668;52.154;5.580;2022-11-09T02:51:23;4.20;;;2.17;;
24357;SDS011;13668;52.154;5.580;2022-11-09T02:53:49;5.10;;;2.08;;
24357;SDS011;13668;52.154;5.580;2022-11-09T02:56:15;7.80;;;2.75;;
24357;SDS011;13668;52.154;5.580;2022-11-09T02:58:40;9.73;;;2.65;;
24357;SDS011;13668;52.154;5.580;2022-11-09T03:01:06;5.43;;;2.65;;
24357;SDS011;13668;52.154;5.580;2022-11-09T03:03:32;6.00;;;2.33;;
24357;SDS011;13668;52.154;5.580;2022-11-09T03:05:58;5.55;;;2.10;;
24357;SDS011;13668;52.154;5.580;2022-11-09T03:08:24;6.00;;;2.50;;
24357;SDS011;13668;52.154;5.580;2022-11-09T03:10:50;5.43;;;2.75;;
24357;SDS011;13668;52.154;5.580;2022-11-09T03:13:16;5.93;;;2.40;;
24357;SDS011;13668;52.154;5.580;2022-11-09T03:15:42;7.20;;;2.45;;
24357;SDS011;13668;52.154;5.580;2022-11-09T03:18:08;6.32;;;2.63;;
24357;SDS011;13668;52.154;5.580;2022-11-09T03:20:34;7.63;;;2.20;;
24357;SDS011;13668;52.154;5.580;2022-11-09T03:23:00;6.22;;;2.10;;
24357;SDS011;13668;52.154;5.580;2022-11-09T03:25:26;6.07;;;2.13;;
24357;SDS011;13668;52.154;5.580;2022-11-09T03:27:59;9.63;;;2.72;;
24357;SDS011;13668;52.154;5.580;2022-11-09T03:30:25;6.18;;;2.45;;
24357;SDS011;13668;52.154;5.580;2022-11-09T03:32:58;10.95;;;2.17;;
24357;SDS011;13668;52.154;5.580;2022-11-09T03:35:24;6.20;;;2.20;;
24357;SDS011;13668;52.154;5.580;2022-11-09T03:37:51;6.38;;;2.30;;
24357;SDS011;13668;52.154;5.580;2022-11-09T03:40:17;4.40;;;1.92;;
24357;SDS011;13668;52.154;5.580;2022-11-09T03:42:43;9.73;;;2.40;;
24357;SDS011;13668;52.154;5.580;2022-11-09T03:45:09;6.15;;;2.40;;
24357;SDS011;13668;52.154;5.580;2022-11-09T03:47:38;6.40;;;2.40;;
24357;SDS011;13668;52.154;5.580;2022-11-09T03:50:04;7.25;;;2.40;;
24357;SDS011;13668;52.154;5.580;2022-11-09T03:52:30;5.90;;;2.33;;
24357;SDS011;13668;52.154;5.580;2022-11-09T03:54:56;3.85;;;2.15;;
24357;SDS011;13668;52.154;5.580;2022-11-09T03:57:22;6.20;;;2.03;;
24357;SDS011;13668;52.154;5.580;2022-11-09T03:59:48;9.82;;;2.33;;
24357;SDS011;13668;52.154;5.580;2022-11-09T04:02:14;7.50;;;1.80;;
24357;SDS011;13668;52.154;5.580;2022-11-09T04:04:40;4.85;;;1.92;;
24357;SDS011;13668;52.154;5.580;2022-11-09T04:07:08;5.70;;;2.10;;
24357;SDS011;13668;52.154;5.580;2022-11-09T04:09:34;5.72;;;2.20;;
24357;SDS011;13668;52.154;5.580;2022-11-09T04:12:00;6.88;;;1.88;;
24357;SDS011;13668;52.154;5.580;2022-11-09T04:14:26;8.90;;;2.20;;
24357;SDS011;13668;52.154;5.580;2022-11-09T04:16:52;5.68;;;2.10;;
24357;SDS011;13668;52.154;5.580;2022-11-09T04:19:18;8.98;;;2.75;;
24357;SDS011;13668;52.154;5.580;2022-11-09T04:21:44;5.22;;;1.67;;
24357;SDS011;13668;52.154;5.580;2022-11-09T04:24:10;8.98;;;2.08;;
24357;SDS011;13668;52.154;5.580;2022-11-09T04:26:36;6.60;;;2.63;;
24357;SDS011;13668;52.154;5.580;2022-11-09T04:29:01;7.82;;;2.25;;
24357;SDS011;13668;52.154;5.580;2022-11-09T04:31:27;5.15;;;1.83;;
24357;SDS011;13668;52.154;5.580;2022-11-09T04:33:53;7.47;;;2.75;;
24357;SDS011;13668;52.154;5.580;2022-11-09T04:36:20;9.70;;;1.80;;
24357;SDS011;13668;52.154;5.580;2022-11-09T04:38:46;8.00;;;2.00;;
24357;SDS011;13668;52.154;5.580;2022-11-09T04:41:12;4.72;;;1.73;;
24357;SDS011;13668;52.154;5.580;2022-11-09T04:43:38;9.38;;;2.53;;
24357;SDS011;13668;52.154;5.580;2022-11-09T04:46:04;10.98;;;2.42;;
24357;SDS011;13668;52.154;5.580;2022-11-09T04:48:30;11.48;;;2.53;;
24357;SDS011;13668;52.154;5.580;2022-11-09T04:51:06;6.80;;;2.00;;
24357;SDS011;13668;52.154;5.580;2022-11-09T04:53:34;3.85;;;1.58;;
24357;SDS011;13668;52.154;5.580;2022-11-09T04:56:01;5.78;;;1.80;;
24357;SDS011;13668;52.154;5.580;2022-11-09T04:58:27;7.18;;;2.15;;
24357;SDS011;13668;52.154;5.580;2022-11-09T05:00:53;9.48;;;1.75;;
24357;SDS011;13668;52.154;5.580;2022-11-09T05:03:19;6.82;;;1.88;;
24357;SDS011;13668;52.154;5.580;2022-11-09T05:05:45;6.90;;;2.13;;
24357;SDS011;13668;52.154;5.580;2022-11-09T05:08:11;9.35;;;2.78;;
24357;SDS011;13668;52.154;5.580;2022-11-09T05:10:37;9.02;;;2.00;;
24357;SDS011;13668;52.154;5.580;2022-11-09T05:13:04;6.90;;;1.77;;
24357;SDS011;13668;52.154;5.580;2022-11-09T05:15:31;6.50;;;2.85;;
24357;SDS011;13668;52.154;5.580;2022-11-09T05:17:57;8.55;;;2.05;;
24357;SDS011;13668;52.154;5.580;2022-11-09T05:20:23;12.10;;;2.38;;
24357;SDS011;13668;52.154;5.580;2022-11-09T05:22:49;6.68;;;1.92;;
24357;SDS011;13668;52.154;5.580;2022-11-09T05:25:34;8.15;;;2.83;;
24357;SDS011;13668;52.154;5.580;2022-11-09T05:28:00;10.05;;;2.58;;
24357;SDS011;13668;52.154;5.580;2022-11-09T05:30:26;7.15;;;1.80;;
24357;SDS011;13668;52.154;5.580;2022-11-09T05:32:52;5.28;;;1.60;;
24357;SDS011;13668;52.154;5.580;2022-11-09T05:35:18;8.77;;;2.15;;
24357;SDS011;13668;52.154;5.580;2022-11-09T05:37:47;10.82;;;2.42;;
24357;SDS011;13668;52.154;5.580;2022-11-09T05:40:14;3.83;;;1.67;;
24357;SDS011;13668;52.154;5.580;2022-11-09T05:42:40;9.60;;;2.17;;
24357;SDS011;13668;52.154;5.580;2022-11-09T05:45:07;6.90;;;2.67;;
24357;SDS011;13668;52.154;5.580;2022-11-09T05:47:40;7.75;;;2.63;;
24357;SDS011;13668;52.154;5.580;2022-11-09T05:50:07;7.88;;;1.95;;
24357;SDS011;13668;52.154;5.580;2022-11-09T05:52:33;8.52;;;1.80;;
24357;SDS011;13668;52.154;5.580;2022-11-09T05:54:59;5.88;;;1.95;;
24357;SDS011;13668;52.154;5.580;2022-11-09T05:57:26;10.90;;;2.83;;
24357;SDS011;13668;52.154;5.580;2022-11-09T05:59:52;8.65;;;2.15;;
24357;SDS011;13668;52.154;5.580;2022-11-09T06:02:18;9.90;;;2.00;;
24357;SDS011;13668;52.154;5.580;2022-11-09T06:04:44;10.70;;;2.15;;
24357;SDS011;13668;52.154;5.580;2022-11-09T06:07:10;8.13;;;2.05;;
24357;SDS011;13668;52.154;5.580;2022-11-09T06:09:36;10.00;;;2.58;;
24357;SDS011;13668;52.154;5.580;2022-11-09T06:12:02;7.35;;;2.35;;
24357;SDS011;13668;52.154;5.580;2022-11-09T06:14:28;8.90;;;2.60;;
24357;SDS011;13668;52.154;5.580;2022-11-09T06:16:54;9.23;;;2.90;;
24357;SDS011;13668;52.154;5.580;2022-11-09T06:19:20;6.68;;;1.98;;
24357;SDS011;13668;52.154;5.580;2022-11-09T06:21:46;11.88;;;2.83;;
24357;SDS011;13668;52.154;5.580;2022-11-09T06:24:12;7.90;;;2.40;;
24357;SDS011;13668;52.154;5.580;2022-11-09T06:26:38;9.45;;;2.20;;
24357;SDS011;13668;52.154;5.580;2022-11-09T06:29:04;7.20;;;3.25;;
24357;SDS011;13668;52.154;5.580;2022-11-09T06:31:30;10.13;;;3.50;;
24357;SDS011;13668;52.154;5.580;2022-11-09T06:33:56;12.63;;;5.40;;
24357;SDS011;13668;52.154;5.580;2022-11-09T06:36:22;11.68;;;3.85;;
24357;SDS011;13668;52.154;5.580;2022-11-09T06:38:48;11.50;;;2.08;;
24357;SDS011;13668;52.154;5.580;2022-11-09T06:41:15;8.70;;;2.53;;
24357;SDS011;13668;52.154;5.580;2022-11-09T06:43:41;7.55;;;2.50;;
24357;SDS011;13668;52.154;5.580;2022-11-09T06:46:07;7.43;;;1.98;;
24357;SDS011;13668;52.154;5.580;2022-11-09T06:48:34;9.63;;;3.35;;
24357;SDS011;13668;52.154;5.580;2022-11-09T06:51:01;8.00;;;2.65;;
24357;SDS011;13668;52.154;5.580;2022-11-09T06:53:27;13.65;;;2.63;;
24357;SDS011;13668;52.154;5.580;2022-11-09T06:55:58;11.85;;;3.22;;
24357;SDS011;13668;52.154;5.580;2022-11-09T06:58:24;11.95;;;3.40;;
24357;SDS011;13668;52.154;5.580;2022-11-09T07:00:50;7.35;;;2.25;;
24357;SDS011;13668;52.154;5.580;2022-11-09T07:03:17;11.85;;;2.50;;
24357;SDS011;13668;52.154;5.580;2022-11-09T07:05:43;9.30;;;3.15;;
24357;SDS011;13668;52.154;5.580;2022-11-09T07:08:10;8.25;;;2.45;;
24357;SDS011;13668;52.154;5.580;2022-11-09T07:10:36;7.82;;;2.92;;
24357;SDS011;13668;52.154;5.580;2022-11-09T07:13:02;10.32;;;3.35;;
24357;SDS011;13668;52.154;5.580;2022-11-09T07:15:28;9.48;;;2.75;;
24357;SDS011;13668;52.154;5.580;2022-11-09T07:17:58;14.50;;;2.90;;
24357;SDS011;13668;52.154;5.580;2022-11-09T07:20:25;11.75;;;2.80;;
24357;SDS011;13668;52.154;5.580;2022-11-09T07:22:51;12.30;;;2.97;;
24357;SDS011;13668;52.154;5.580;2022-11-09T07:25:17;13.98;;;3.25;;
24357;SDS011;13668;52.154;5.580;2022-11-09T07:27:43;9.18;;;3.00;;
24357;SDS011;13668;52.154;5.580;2022-11-09T07:30:09;7.53;;;2.72;;
24357;SDS011;13668;52.154;5.580;2022-11-09T07:32:36;14.60;;;2.75;;
24357;SDS011;13668;52.154;5.580;2022-11-09T07:35:02;5.45;;;2.67;;
24357;SDS011;13668;52.154;5.580;2022-11-09T07:37:28;8.13;;;2.80;;
24357;SDS011;13668;52.154;5.580;2022-11-09T07:39:54;10.73;;;2.60;;
24357;SDS011;13668;52.154;5.580;2022-11-09T07:42:20;7.57;;;2.85;;
24357;SDS011;13668;52.154;5.580;2022-11-09T07:44:46;8.00;;;2.67;;
24357;SDS011;13668;52.154;5.580;2022-11-09T07:47:12;11.02;;;3.15;;
24357;SDS011;13668;52.154;5.580;2022-11-09T07:49:38;10.40;;;3.50;;
24357;SDS011;13668;52.154;5.580;2022-11-09T07:52:04;11.38;;;3.22;;
24357;SDS011;13668;52.154;5.580;2022-11-09T07:54:30;14.13;;;2.83;;
24357;SDS011;13668;52.154;5.580;2022-11-09T07:56:56;10.13;;;3.35;;
24357;SDS011;13668;52.154;5.580;2022-11-09T07:59:22;11.20;;;2.78;;
24357;SDS011;13668;52.154;5.580;2022-11-09T08:01:48;9.98;;;2.60;;
24357;SDS011;13668;52.154;5.580;2022-11-09T08:04:14;10.63;;;2.78;;
24357;SDS011;13668;52.154;5.580;2022-11-09T08:06:40;9.90;;;2.78;;
24357;SDS011;13668;52.154;5.580;2022-11-09T08:09:06;8.93;;;2.92;;
24357;SDS011;13668;52.154;5.580;2022-11-09T08:11:32;7.97;;;2.40;;
24357;SDS011;13668;52.154;5.580;2022-11-09T08:13:58;11.40;;;3.50;;
24357;SDS011;13668;52.154;5.580;2022-11-09T08:16:24;8.05;;;2.72;;
24357;SDS011;13668;52.154;5.580;2022-11-09T08:18:50;7.90;;;2.75;;
24357;SDS011;13668;52.154;5.580;2022-11-09T08:21:16;8.98;;;3.40;;
24357;SDS011;13668;52.154;5.580;2022-11-09T08:23:42;12.98;;;4.38;;
24357;SDS011;13668;52.154;5.580;2022-11-09T08:26:09;8.23;;;2.50;;
24357;SDS011;13668;52.154;5.580;2022-11-09T08:28:35;6.63;;;2.78;;
24357;SDS011;13668;52.154;5.580;2022-11-09T08:31:02;7.45;;;2.85;;
24357;SDS011;13668;52.154;5.580;2022-11-09T08:33:29;6.43;;;2.53;;
24357;SDS011;13668;52.154;5.580;2022-11-09T08:35:55;7.32;;;2.20;;
24357;SDS011;13668;52.154;5.580;2022-11-09T08:38:21;9.85;;;2.88;;
24357;SDS011;13668;52.154;5.580;2022-11-09T08:40:48;8.65;;;2.88;;
24357;SDS011;13668;52.154;5.580;2022-11-09T08:43:14;13.32;;;2.75;;
24357;SDS011;13668;52.154;5.580;2022-11-09T08:45:40;8.82;;;2.03;;
24357;SDS011;13668;52.154;5.580;2022-11-09T08:48:06;9.45;;;3.42;;
24357;SDS011;13668;52.154;5.580;2022-11-09T08:50:33;8.75;;;2.63;;
24357;SDS011;13668;52.154;5.580;2022-11-09T08:53:00;10.20;;;3.28;;
24357;SDS011;13668;52.154;5.580;2022-11-09T08:55:26;12.65;;;2.83;;
24357;SDS011;13668;52.154;5.580;2022-11-09T08:57:52;6.65;;;2.13;;
24357;SDS011;13668;52.154;5.580;2022-11-09T09:00:20;7.22;;;2.55;;
24357;SDS011;13668;52.154;5.580;2022-11-09T09:02:46;8.93;;;2.53;;
24357;SDS011;13668;52.154;5.580;2022-11-09T09:05:12;9.85;;;2.10;;
24357;SDS011;13668;52.154;5.580;2022-11-09T09:07:38;10.48;;;3.05;;
24357;SDS011;13668;52.154;5.580;2022-11-09T09:10:04;8.27;;;2.30;;
24357;SDS011;13668;52.154;5.580;2022-11-09T09:12:30;7.40;;;2.40;;
24357;SDS011;13668;52.154;5.580;2022-11-09T09:14:56;8.43;;;2.58;;
24357;SDS011;13668;52.154;5.580;2022-11-09T09:17:22;9.50;;;2.28;;
24357;SDS011;13668;52.154;5.580;2022-11-09T09:19:48;9.23;;;2.35;;
24357;SDS011;13668;52.154;5.580;2022-11-09T09:22:14;8.90;;;2.10;;
24357;SDS011;13668;52.154;5.580;2022-11-09T09:24:40;9.18;;;2.80;;
24357;SDS011;13668;52.154;5.580;2022-11-09T09:27:06;6.18;;;2.05;;
24357;SDS011;13668;52.154;5.580;2022-11-09T09:29:35;9.50;;;2.53;;
24357;SDS011;13668;52.154;5.580;2022-11-09T09:32:01;11.85;;;2.72;;
24357;SDS011;13668;52.154;5.580;2022-11-09T09:34:27;9.10;;;2.55;;
24357;SDS011;13668;52.154;5.580;2022-11-09T09:36:53;8.88;;;2.67;;
24357;SDS011;13668;52.154;5.580;2022-11-09T09:39:20;10.73;;;2.97;;
24357;SDS011;13668;52.154;5.580;2022-11-09T09:46:52;12.05;;;2.90;;
24357;SDS011;13668;52.154;5.580;2022-11-09T09:49:26;12.00;;;3.38;;
24357;SDS011;13668;52.154;5.580;2022-11-09T09:54:40;6.18;;;2.47;;
24357;SDS011;13668;52.154;5.580;2022-11-09T09:57:11;9.93;;;2.60;;
24357;SDS011;13668;52.154;5.580;2022-11-09T09:59:39;9.57;;;2.65;;
24357;SDS011;13668;52.154;5.580;2022-11-09T10:02:23;11.35;;;2.50;;
24357;SDS011;13668;52.154;5.580;2022-11-09T10:04:49;9.85;;;2.13;;
24357;SDS011;13668;52.154;5.580;2022-11-09T10:17:53;7.88;;;3.28;;
24357;SDS011;13668;52.154;5.580;2022-11-09T10:21:13;8.27;;;2.50;;
24357;SDS011;13668;52.154;5.580;2022-11-09T10:23:19;12.63;;;2.25;;
24357;SDS011;13668;52.154;5.580;2022-11-09T10:25:51;6.28;;;2.50;;
24357;SDS011;13668;52.154;5.580;2022-11-09T10:28:18;9.35;;;2.72;;
24357;SDS011;13668;52.154;5.580;2022-11-09T10:30:47;10.07;;;2.80;;
24357;SDS011;13668;52.154;5.580;2022-11-09T10:33:15;7.82;;;3.05;;
24357;SDS011;13668;52.154;5.580;2022-11-09T10:35:47;10.73;;;3.47;;
24357;SDS011;13668;52.154;5.580;2022-11-09T10:38:17;8.52;;;2.38;;
24357;SDS011;13668;52.154;5.580;2022-11-09T10:43:14;8.95;;;2.72;;
24357;SDS011;13668;52.154;5.580;2022-11-09T10:45:41;7.97;;;3.10;;
24357;SDS011;13668;52.154;5.580;2022-11-09T10:48:08;6.82;;;2.60;;
24357;SDS011;13668;52.154;5.580;2022-11-09T10:50:37;10.80;;;3.38;;
24357;SDS011;13668;52.154;5.580;2022-11-09T10:53:07;7.10;;;2.78;;
24357;SDS011;13668;52.154;5.580;2022-11-09T10:55:33;10.05;;;2.80;;
24357;SDS011;13668;52.154;5.580;2022-11-09T11:00:32;5.95;;;2.78;;
24357;SDS011;13668;52.154;5.580;2022-11-09T11:02:58;8.77;;;2.45;;
24357;SDS011;13668;52.154;5.580;2022-11-09T11:05:34;8.38;;;2.88;;
24357;SDS011;13668;52.154;5.580;2022-11-09T11:08:10;7.05;;;3.10;;
24357;SDS011;13668;52.154;5.580;2022-11-09T11:10:36;11.10;;;2.80;;
24357;SDS011;13668;52.154;5.580;2022-11-09T11:15:31;8.63;;;2.50;;
24357;SDS011;13668;52.154;5.580;2022-11-09T11:18:00;6.95;;;2.55;;
24357;SDS011;13668;52.154;5.580;2022-11-09T11:25:56;10.23;;;2.83;;
24357;SDS011;13668;52.154;5.580;2022-11-09T11:28:36;8.95;;;2.28;;
24357;SDS011;13668;52.154;5.580;2022-11-09T11:31:06;8.95;;;3.25;;
24357;SDS011;13668;52.154;5.580;2022-11-09T11:33:39;7.20;;;2.30;;
24357;SDS011;13668;52.154;5.580;2022-11-09T11:36:11;8.45;;;2.60;;
24357;SDS011;13668;52.154;5.580;2022-11-09T11:38:44;8.85;;;2.88;;
24357;SDS011;13668;52.154;5.580;2022-11-09T11:51:20;9.60;;;2.20;;
24357;SDS011;13668;52.154;5.580;2022-11-09T11:53:50;6.38;;;2.35;;
24357;SDS011;13668;52.154;5.580;2022-11-09T11:56:25;5.30;;;1.98;;
24357;SDS011;13668;52.154;5.580;2022-11-09T12:06:34;6.65;;;2.40;;
24357;SDS011;13668;52.154;5.580;2022-11-09T12:11:45;5.03;;;1.80;;
24357;SDS011;13668;52.154;5.580;2022-11-09T12:16:50;10.63;;;2.95;;
24357;SDS011;13668;52.154;5.580;2022-11-09T12:24:25;5.80;;;2.60;;
24357;SDS011;13668;52.154;5.580;2022-11-09T12:32:11;10.38;;;2.90;;
24357;SDS011;13668;52.154;5.580;2022-11-09T12:37:28;5.97;;;2.80;;
24357;SDS011;13668;52.154;5.580;2022-11-09T12:39:59;8.35;;;3.25;;
24357;SDS011;13668;52.154;5.580;2022-11-09T12:42:45;5.60;;;2.63;;
24357;SDS011;13668;52.154;5.580;2022-11-09T12:45:17;6.18;;;2.35;;
24357;SDS011;13668;52.154;5.580;2022-11-09T12:47:46;3.53;;;2.20;;
24357;SDS011;13668;52.154;5.580;2022-11-09T12:50:12;5.25;;;2.13;;
24357;SDS011;13668;52.154;5.580;2022-11-09T12:52:39;6.93;;;2.25;;
24357;SDS011;13668;52.154;5.580;2022-11-09T12:55:05;10.25;;;2.42;;
24357;SDS011;13668;52.154;5.580;2022-11-09T12:57:31;5.88;;;2.30;;
24357;SDS011;13668;52.154;5.580;2022-11-09T12:59:58;7.25;;;2.40;;
24357;SDS011;13668;52.154;5.580;2022-11-09T13:08:30;14.13;;;3.10;;
24357;SDS011;13668;52.154;5.580;2022-11-09T13:11:08;7.38;;;2.60;;
24357;SDS011;13668;52.154;5.580;2022-11-09T13:13:34;6.00;;;2.15;;
24357;SDS011;13668;52.154;5.580;2022-11-09T13:16:04;8.77;;;2.45;;
24357;SDS011;13668;52.154;5.580;2022-11-09T13:21:30;6.32;;;2.38;;
24357;SDS011;13668;52.154;5.580;2022-11-09T13:23:49;4.82;;;2.08;;
24357;SDS011;13668;52.154;5.580;2022-11-09T13:26:20;6.32;;;2.03;;
24357;SDS011;13668;52.154;5.580;2022-11-09T13:39:45;8.48;;;2.42;;
24357;SDS011;13668;52.154;5.580;2022-11-09T13:42:22;4.38;;;1.65;;
24357;SDS011;13668;52.154;5.580;2022-11-09T13:44:48;4.60;;;2.30;;
24357;SDS011;13668;52.154;5.580;2022-11-09T13:47:21;6.72;;;2.38;;
24357;SDS011;13668;52.154;5.580;2022-11-09T13:49:48;4.68;;;1.40;;
24357;SDS011;13668;52.154;5.580;2022-11-09T13:54:59;7.63;;;1.60;;
24357;SDS011;13668;52.154;5.580;2022-11-09T13:57:25;6.03;;;1.58;;
24357;SDS011;13668;52.154;5.580;2022-11-09T13:59:52;6.30;;;1.42;;
24357;SDS011;13668;52.154;5.580;2022-11-09T14:02:20;3.35;;;1.85;;
24357;SDS011;13668;52.154;5.580;2022-11-09T14:04:46;3.83;;;1.27;;
24357;SDS011;13668;52.154;5.580;2022-11-09T14:07:26;7.30;;;1.40;;
24357;SDS011;13668;52.154;5.580;2022-11-09T14:22:33;4.43;;;1.30;;
24357;SDS011;13668;52.154;5.580;2022-11-09T14:25:08;5.78;;;1.20;;
24357;SDS011;13668;52.154;5.580;2022-11-09T14:27:44;4.43;;;1.38;;
24357;SDS011;13668;52.154;5.580;2022-11-09T14:30:17;4.70;;;1.10;;
24357;SDS011;13668;52.154;5.580;2022-11-09T14:32:51;9.15;;;1.40;;
24357;SDS011;13668;52.154;5.580;2022-11-09T14:37:50;5.28;;;1.27;;
24357;SDS011;13668;52.154;5.580;2022-11-09T14:42:50;3.47;;;1.30;;
24357;SDS011;13668;52.154;5.580;2022-11-09T14:45:16;9.65;;;1.50;;
24357;SDS011;13668;52.154;5.580;2022-11-09T14:47:43;4.40;;;1.30;;
24357;SDS011;13668;52.154;5.580;2022-11-09T14:50:13;6.38;;;1.90;;
24357;SDS011;13668;52.154;5.580;2022-11-09T14:52:40;8.60;;;1.77;;
24357;SDS011;13668;52.154;5.580;2022-11-09T14:55:10;3.22;;;1.42;;
24357;SDS011;13668;52.154;5.580;2022-11-09T14:57:36;5.80;;;1.40;;
24357;SDS011;13668;52.154;5.580;2022-11-09T15:00:03;5.00;;;1.55;;
24357;SDS011;13668;52.154;5.580;2022-11-09T15:02:29;2.97;;;1.40;;
24357;SDS011;13668;52.154;5.580;2022-11-09T15:04:57;4.55;;;1.30;;
24357;SDS011;13668;52.154;5.580;2022-11-09T15:07:24;4.82;;;1.10;;
24357;SDS011;13668;52.154;5.580;2022-11-09T15:09:55;6.53;;;1.85;;
24357;SDS011;13668;52.154;5.580;2022-11-09T15:12:22;7.22;;;1.75;;
24357;SDS011;13668;52.154;5.580;2022-11-09T15:14:49;3.67;;;1.20;;
24357;SDS011;13668;52.154;5.580;2022-11-09T15:17:27;6.90;;;2.10;;
24357;SDS011;13668;52.154;5.580;2022-11-09T15:19:56;11.90;;;2.47;;
24357;SDS011;13668;52.154;5.580;2022-11-09T15:27:55;5.15;;;1.40;;
24357;SDS011;13668;52.154;5.580;2022-11-09T15:30:35;3.40;;;1.60;;
24357;SDS011;13668;52.154;5.580;2022-11-09T15:33:17;6.95;;;1.55;;
24357;SDS011;13668;52.154;5.580;2022-11-09T15:35:54;4.30;;;1.23;;
24357;SDS011;13668;52.154;5.580;2022-11-09T15:40:56;2.83;;;1.27;;
24357;SDS011;13668;52.154;5.580;2022-11-09T15:43:22;5.85;;;1.33;;
24357;SDS011;13668;52.154;5.580;2022-11-09T15:45:48;4.10;;;1.40;;
24357;SDS011;13668;52.154;5.580;2022-11-09T15:48:14;5.00;;;1.30;;
24357;SDS011;13668;52.154;5.580;2022-11-09T15:50:40;5.00;;;1.20;;
24357;SDS011;13668;52.154;5.580;2022-11-09T15:53:06;6.72;;;1.25;;
24357;SDS011;13668;52.154;5.580;2022-11-09T15:55:32;6.95;;;1.73;;
24357;SDS011;13668;52.154;5.580;2022-11-09T15:57:58;3.95;;;1.50;;
24357;SDS011;13668;52.154;5.580;2022-11-09T16:00:24;5.63;;;1.60;;
24357;SDS011;13668;52.154;5.580;2022-11-09T16:02:53;5.82;;;1.80;;
24357;SDS011;13668;52.154;5.580;2022-11-09T16:05:19;5.22;;;1.10;;
24357;SDS011;13668;52.154;5.580;2022-11-09T16:07:47;5.82;;;1.52;;
24357;SDS011;13668;52.154;5.580;2022-11-09T16:10:14;3.55;;;1.42;;
24357;SDS011;13668;52.154;5.580;2022-11-09T16:12:40;6.13;;;1.20;;
24357;SDS011;13668;52.154;5.580;2022-11-09T16:15:06;3.60;;;1.23;;
24357;SDS011;13668;52.154;5.580;2022-11-09T16:17:32;6.20;;;1.80;;
24357;SDS011;13668;52.154;5.580;2022-11-09T16:19:58;4.07;;;1.25;;
24357;SDS011;13668;52.154;5.580;2022-11-09T16:22:28;6.70;;;1.30;;
24357;SDS011;13668;52.154;5.580;2022-11-09T16:24:54;9.18;;;1.63;;
24357;SDS011;13668;52.154;5.580;2022-11-09T16:27:20;5.57;;;1.40;;
24357;SDS011;13668;52.154;5.580;2022-11-09T16:29:46;4.43;;;1.50;;
24357;SDS011;13668;52.154;5.580;2022-11-09T16:32:12;9.43;;;2.30;;
24357;SDS011;13668;52.154;5.580;2022-11-09T16:34:38;12.77;;;2.65;;
24357;SDS011;13668;52.154;5.580;2022-11-09T16:37:04;6.38;;;1.80;;
24357;SDS011;13668;52.154;5.580;2022-11-09T16:39:31;5.97;;;1.58;;
24357;SDS011;13668;52.154;5.580;2022-11-09T16:41:58;8.13;;;1.70;;
24357;SDS011;13668;52.154;5.580;2022-11-09T16:44:28;5.63;;;1.65;;
24357;SDS011;13668;52.154;5.580;2022-11-09T16:46:56;6.82;;;2.03;;